sensor_id;sensor_type;location;lat;lon;timestamp;P1;durP1;ratioP1;P2;durP2;ratioP2
12687;SDS011;6408;59.388;17.798;2023-06-26T00:00:00;3.08;;;2.30;;
12687;SDS011;6408;59.388;17.798;2023-06-26T00:02:29;2.47;;;2.20;;
12687;SDS011;6408;59.388;17.798;2023-06-26T00:04:58;4.95;;;2.38;;
12687;SDS011;6408;59.388;17.798;2023-06-26T00:07:27;2.35;;;2.15;;
12687;SDS011;6408;59.388;17.798;2023-06-26T00:09:56;2.58;;;2.38;;
12687;SDS011;6408;59.388;17.798;2023-06-26T00:12:23;3.95;;;2.40;;
12687;SDS011;6408;59.388;17.798;2023-06-26T00:14:53;2.60;;;2.40;;
12687;SDS011;6408;59.388;17.798;2023-06-26T00:17:21;5.25;;;2.67;;
12687;SDS011;6408;59.388;17.798;2023-06-26T00:19:48;2.55;;;2.35;;
12687;SDS011;6408;59.388;17.798;2023-06-26T00:22:17;2.88;;;2.60;;
12687;SDS011;6408;59.388;17.798;2023-06-26T00:24:45;2.85;;;2.53;;
12687;SDS011;6408;59.388;17.798;2023-06-26T00:27:12;2.97;;;2.50;;
12687;SDS011;6408;59.388;17.798;2023-06-26T00:29:40;2.85;;;2.60;;
12687;SDS011;6408;59.388;17.798;2023-06-26T00:32:09;3.10;;;2.58;;
12687;SDS011;6408;59.388;17.798;2023-06-26T00:34:37;2.97;;;2.63;;
12687;SDS011;6408;59.388;17.798;2023-06-26T00:37:05;3.55;;;2.75;;
12687;SDS011;6408;59.388;17.798;2023-06-26T00:39:32;3.95;;;2.50;;
12687;SDS011;6408;59.388;17.798;2023-06-26T00:42:00;3.13;;;2.58;;
12687;SDS011;6408;59.388;17.798;2023-06-26T00:44:28;2.80;;;2.60;;
12687;SDS011;6408;59.388;17.798;2023-06-26T00:46:55;4.13;;;2.60;;
12687;SDS011;6408;59.388;17.798;2023-06-26T00:49:25;3.55;;;2.80;;
12687;SDS011;6408;59.388;17.798;2023-06-26T00:51:54;5.00;;;2.30;;
12687;SDS011;6408;59.388;17.798;2023-06-26T00:54:23;4.10;;;2.80;;
12687;SDS011;6408;59.388;17.798;2023-06-26T00:56:52;7.43;;;3.00;;
12687;SDS011;6408;59.388;17.798;2023-06-26T00:59:20;3.08;;;2.78;;
12687;SDS011;6408;59.388;17.798;2023-06-26T01:01:47;4.88;;;2.83;;
12687;SDS011;6408;59.388;17.798;2023-06-26T01:04:15;3.35;;;2.63;;
12687;SDS011;6408;59.388;17.798;2023-06-26T01:06:46;3.35;;;2.75;;
12687;SDS011;6408;59.388;17.798;2023-06-26T01:09:17;5.40;;;3.25;;
12687;SDS011;6408;59.388;17.798;2023-06-26T01:11:46;3.90;;;2.55;;
12687;SDS011;6408;59.388;17.798;2023-06-26T01:14:14;3.28;;;2.92;;
12687;SDS011;6408;59.388;17.798;2023-06-26T01:16:42;4.03;;;2.90;;
12687;SDS011;6408;59.388;17.798;2023-06-26T01:19:13;5.55;;;2.70;;
12687;SDS011;6408;59.388;17.798;2023-06-26T01:21:54;4.25;;;2.75;;
12687;SDS011;6408;59.388;17.798;2023-06-26T01:24:25;6.15;;;3.10;;
12687;SDS011;6408;59.388;17.798;2023-06-26T01:27:04;3.38;;;2.83;;
12687;SDS011;6408;59.388;17.798;2023-06-26T01:29:33;5.38;;;3.28;;
12687;SDS011;6408;59.388;17.798;2023-06-26T01:32:02;3.60;;;2.78;;
12687;SDS011;6408;59.388;17.798;2023-06-26T01:34:30;5.70;;;2.72;;
12687;SDS011;6408;59.388;17.798;2023-06-26T01:36:58;3.80;;;3.03;;
12687;SDS011;6408;59.388;17.798;2023-06-26T01:39:25;3.28;;;2.60;;
12687;SDS011;6408;59.388;17.798;2023-06-26T01:41:53;3.65;;;2.60;;
12687;SDS011;6408;59.388;17.798;2023-06-26T01:44:26;4.25;;;3.03;;
12687;SDS011;6408;59.388;17.798;2023-06-26T01:46:58;3.08;;;2.50;;
12687;SDS011;6408;59.388;17.798;2023-06-26T01:49:46;3.35;;;2.60;;
12687;SDS011;6408;59.388;17.798;2023-06-26T01:52:18;3.80;;;3.00;;
12687;SDS011;6408;59.388;17.798;2023-06-26T01:57:46;3.75;;;2.53;;
12687;SDS011;6408;59.388;17.798;2023-06-26T02:00:21;3.20;;;2.50;;
12687;SDS011;6408;59.388;17.798;2023-06-26T02:02:50;4.00;;;3.00;;
12687;SDS011;6408;59.388;17.798;2023-06-26T02:05:18;3.72;;;2.67;;
12687;SDS011;6408;59.388;17.798;2023-06-26T02:07:46;4.53;;;2.90;;
12687;SDS011;6408;59.388;17.798;2023-06-26T02:10:13;3.22;;;2.80;;
12687;SDS011;6408;59.388;17.798;2023-06-26T02:12:41;2.88;;;2.55;;
12687;SDS011;6408;59.388;17.798;2023-06-26T02:15:09;2.92;;;2.40;;
12687;SDS011;6408;59.388;17.798;2023-06-26T02:17:39;3.85;;;3.00;;
12687;SDS011;6408;59.388;17.798;2023-06-26T02:20:07;3.58;;;2.85;;
12687;SDS011;6408;59.388;17.798;2023-06-26T02:22:35;5.28;;;3.30;;
12687;SDS011;6408;59.388;17.798;2023-06-26T02:25:03;3.65;;;2.80;;
12687;SDS011;6408;59.388;17.798;2023-06-26T02:27:31;3.30;;;2.95;;
12687;SDS011;6408;59.388;17.798;2023-06-26T02:29:59;3.72;;;2.80;;
12687;SDS011;6408;59.388;17.798;2023-06-26T02:32:27;4.25;;;3.00;;
12687;SDS011;6408;59.388;17.798;2023-06-26T02:34:57;5.47;;;3.67;;
12687;SDS011;6408;59.388;17.798;2023-06-26T02:37:24;3.47;;;3.17;;
12687;SDS011;6408;59.388;17.798;2023-06-26T02:39:52;3.50;;;3.10;;
12687;SDS011;6408;59.388;17.798;2023-06-26T02:42:19;4.78;;;2.95;;
12687;SDS011;6408;59.388;17.798;2023-06-26T02:44:47;3.42;;;2.80;;
12687;SDS011;6408;59.388;17.798;2023-06-26T02:47:14;4.80;;;2.90;;
12687;SDS011;6408;59.388;17.798;2023-06-26T02:49:42;5.22;;;3.33;;
12687;SDS011;6408;59.388;17.798;2023-06-26T02:52:11;4.22;;;3.28;;
12687;SDS011;6408;59.388;17.798;2023-06-26T02:54:39;3.13;;;2.83;;
12687;SDS011;6408;59.388;17.798;2023-06-26T02:57:07;3.63;;;2.90;;
12687;SDS011;6408;59.388;17.798;2023-06-26T02:59:34;3.10;;;2.80;;
12687;SDS011;6408;59.388;17.798;2023-06-26T03:02:02;4.70;;;2.67;;
12687;SDS011;6408;59.388;17.798;2023-06-26T03:04:30;3.60;;;3.05;;
12687;SDS011;6408;59.388;17.798;2023-06-26T03:07:01;3.92;;;2.90;;
12687;SDS011;6408;59.388;17.798;2023-06-26T03:09:31;3.67;;;3.10;;
12687;SDS011;6408;59.388;17.798;2023-06-26T03:11:58;3.38;;;3.08;;
12687;SDS011;6408;59.388;17.798;2023-06-26T03:14:26;5.15;;;3.35;;
12687;SDS011;6408;59.388;17.798;2023-06-26T03:16:55;3.72;;;2.97;;
12687;SDS011;6408;59.388;17.798;2023-06-26T03:19:23;3.47;;;3.00;;
12687;SDS011;6408;59.388;17.798;2023-06-26T03:21:51;3.17;;;2.83;;
12687;SDS011;6408;59.388;17.798;2023-06-26T03:24:18;2.97;;;2.65;;
12687;SDS011;6408;59.388;17.798;2023-06-26T03:26:47;4.22;;;3.15;;
12687;SDS011;6408;59.388;17.798;2023-06-26T03:29:16;5.28;;;3.05;;
12687;SDS011;6408;59.388;17.798;2023-06-26T03:31:44;3.72;;;3.13;;
12687;SDS011;6408;59.388;17.798;2023-06-26T03:34:12;3.00;;;2.53;;
12687;SDS011;6408;59.388;17.798;2023-06-26T03:36:41;2.83;;;2.50;;
12687;SDS011;6408;59.388;17.798;2023-06-26T03:39:09;2.88;;;2.65;;
12687;SDS011;6408;59.388;17.798;2023-06-26T03:41:37;4.50;;;2.83;;
12687;SDS011;6408;59.388;17.798;2023-06-26T03:44:06;3.28;;;2.78;;
12687;SDS011;6408;59.388;17.798;2023-06-26T03:46:34;3.22;;;2.88;;
12687;SDS011;6408;59.388;17.798;2023-06-26T03:49:02;5.20;;;3.28;;
12687;SDS011;6408;59.388;17.798;2023-06-26T03:51:29;3.10;;;2.80;;
12687;SDS011;6408;59.388;17.798;2023-06-26T03:53:57;4.47;;;3.10;;
12687;SDS011;6408;59.388;17.798;2023-06-26T03:56:25;4.32;;;3.25;;
12687;SDS011;6408;59.388;17.798;2023-06-26T03:58:52;3.10;;;2.80;;
12687;SDS011;6408;59.388;17.798;2023-06-26T04:01:22;3.92;;;2.92;;
12687;SDS011;6408;59.388;17.798;2023-06-26T04:03:49;3.67;;;2.80;;
12687;SDS011;6408;59.388;17.798;2023-06-26T04:06:17;3.38;;;3.08;;
12687;SDS011;6408;59.388;17.798;2023-06-26T04:08:45;3.15;;;2.70;;
12687;SDS011;6408;59.388;17.798;2023-06-26T04:11:13;3.60;;;3.00;;
12687;SDS011;6408;59.388;17.798;2023-06-26T04:13:40;3.67;;;3.25;;
12687;SDS011;6408;59.388;17.798;2023-06-26T04:16:08;3.20;;;2.90;;
12687;SDS011;6408;59.388;17.798;2023-06-26T04:18:38;4.28;;;3.08;;
12687;SDS011;6408;59.388;17.798;2023-06-26T04:21:07;3.55;;;2.95;;
12687;SDS011;6408;59.388;17.798;2023-06-26T04:23:36;5.90;;;2.75;;
12687;SDS011;6408;59.388;17.798;2023-06-26T04:26:05;5.00;;;3.20;;
12687;SDS011;6408;59.388;17.798;2023-06-26T04:28:33;5.05;;;3.00;;
12687;SDS011;6408;59.388;17.798;2023-06-26T04:31:01;4.13;;;3.10;;
12687;SDS011;6408;59.388;17.798;2023-06-26T04:33:30;3.53;;;2.80;;
12687;SDS011;6408;59.388;17.798;2023-06-26T04:35:59;3.65;;;2.88;;
12687;SDS011;6408;59.388;17.798;2023-06-26T04:38:28;4.35;;;3.20;;
12687;SDS011;6408;59.388;17.798;2023-06-26T04:40:56;3.95;;;2.78;;
12687;SDS011;6408;59.388;17.798;2023-06-26T04:43:24;3.17;;;2.45;;
12687;SDS011;6408;59.388;17.798;2023-06-26T04:45:52;3.42;;;2.70;;
12687;SDS011;6408;59.388;17.798;2023-06-26T04:48:19;4.63;;;3.17;;
12687;SDS011;6408;59.388;17.798;2023-06-26T04:50:47;7.35;;;2.72;;
12687;SDS011;6408;59.388;17.798;2023-06-26T04:53:21;4.40;;;2.70;;
12687;SDS011;6408;59.388;17.798;2023-06-26T04:55:49;3.40;;;2.88;;
12687;SDS011;6408;59.388;17.798;2023-06-26T04:58:17;4.00;;;2.72;;
12687;SDS011;6408;59.388;17.798;2023-06-26T05:00:45;3.58;;;3.10;;
12687;SDS011;6408;59.388;17.798;2023-06-26T05:03:13;4.45;;;3.30;;
12687;SDS011;6408;59.388;17.798;2023-06-26T05:05:42;3.30;;;3.00;;
12687;SDS011;6408;59.388;17.798;2023-06-26T05:08:13;4.53;;;3.25;;
12687;SDS011;6408;59.388;17.798;2023-06-26T05:10:43;5.95;;;3.53;;
12687;SDS011;6408;59.388;17.798;2023-06-26T05:13:11;3.95;;;2.72;;
12687;SDS011;6408;59.388;17.798;2023-06-26T05:15:42;4.63;;;3.55;;
12687;SDS011;6408;59.388;17.798;2023-06-26T05:18:10;5.40;;;2.97;;
12687;SDS011;6408;59.388;17.798;2023-06-26T05:20:38;3.72;;;2.97;;
12687;SDS011;6408;59.388;17.798;2023-06-26T05:23:06;6.68;;;3.10;;
12687;SDS011;6408;59.388;17.798;2023-06-26T05:25:34;3.47;;;3.05;;
12687;SDS011;6408;59.388;17.798;2023-06-26T05:28:04;3.22;;;2.67;;
12687;SDS011;6408;59.388;17.798;2023-06-26T05:30:35;3.08;;;2.65;;
12687;SDS011;6408;59.388;17.798;2023-06-26T05:33:03;3.03;;;2.55;;
12687;SDS011;6408;59.388;17.798;2023-06-26T05:35:33;5.43;;;2.83;;
12687;SDS011;6408;59.388;17.798;2023-06-26T05:38:02;4.80;;;2.90;;
12687;SDS011;6408;59.388;17.798;2023-06-26T05:40:30;3.13;;;2.83;;
12687;SDS011;6408;59.388;17.798;2023-06-26T05:43:00;4.15;;;2.95;;
12687;SDS011;6408;59.388;17.798;2023-06-26T05:45:29;4.03;;;3.35;;
12687;SDS011;6408;59.388;17.798;2023-06-26T05:47:57;3.85;;;2.75;;
12687;SDS011;6408;59.388;17.798;2023-06-26T05:50:25;3.03;;;2.65;;
12687;SDS011;6408;59.388;17.798;2023-06-26T05:52:54;4.18;;;2.97;;
12687;SDS011;6408;59.388;17.798;2023-06-26T05:55:23;5.00;;;2.95;;
12687;SDS011;6408;59.388;17.798;2023-06-26T05:57:52;3.88;;;3.00;;
12687;SDS011;6408;59.388;17.798;2023-06-26T06:00:20;3.58;;;2.85;;
12687;SDS011;6408;59.388;17.798;2023-06-26T06:02:50;4.38;;;2.97;;
12687;SDS011;6408;59.388;17.798;2023-06-26T06:05:19;3.65;;;3.25;;
12687;SDS011;6408;59.388;17.798;2023-06-26T06:07:47;4.35;;;2.70;;
12687;SDS011;6408;59.388;17.798;2023-06-26T06:10:14;3.47;;;3.08;;
12687;SDS011;6408;59.388;17.798;2023-06-26T06:12:42;5.07;;;2.70;;
12687;SDS011;6408;59.388;17.798;2023-06-26T06:15:09;5.65;;;3.20;;
12687;SDS011;6408;59.388;17.798;2023-06-26T06:17:37;3.97;;;2.95;;
12687;SDS011;6408;59.388;17.798;2023-06-26T06:20:07;5.95;;;2.85;;
12687;SDS011;6408;59.388;17.798;2023-06-26T06:22:35;3.50;;;2.60;;
12687;SDS011;6408;59.388;17.798;2023-06-26T06:25:03;3.10;;;2.80;;
12687;SDS011;6408;59.388;17.798;2023-06-26T06:27:31;3.38;;;3.08;;
12687;SDS011;6408;59.388;17.798;2023-06-26T06:29:58;4.05;;;2.80;;
12687;SDS011;6408;59.388;17.798;2023-06-26T06:32:26;3.55;;;2.55;;
12687;SDS011;6408;59.388;17.798;2023-06-26T06:34:54;3.40;;;2.85;;
12687;SDS011;6408;59.388;17.798;2023-06-26T06:37:23;2.80;;;2.60;;
12687;SDS011;6408;59.388;17.798;2023-06-26T06:39:51;3.05;;;2.35;;
12687;SDS011;6408;59.388;17.798;2023-06-26T06:42:19;3.88;;;2.67;;
12687;SDS011;6408;59.388;17.798;2023-06-26T06:44:47;2.75;;;2.50;;
12687;SDS011;6408;59.388;17.798;2023-06-26T06:47:14;3.03;;;2.50;;
12687;SDS011;6408;59.388;17.798;2023-06-26T06:49:42;4.38;;;2.80;;
12687;SDS011;6408;59.388;17.798;2023-06-26T06:52:09;3.90;;;2.72;;
12687;SDS011;6408;59.388;17.798;2023-06-26T06:57:24;4.07;;;2.25;;
12687;SDS011;6408;59.388;17.798;2023-06-26T06:59:52;3.08;;;2.42;;
12687;SDS011;6408;59.388;17.798;2023-06-26T07:02:20;3.05;;;2.40;;
12687;SDS011;6408;59.388;17.798;2023-06-26T07:04:47;2.28;;;2.08;;
12687;SDS011;6408;59.388;17.798;2023-06-26T07:07:18;3.53;;;2.25;;
12687;SDS011;6408;59.388;17.798;2023-06-26T07:09:45;2.60;;;2.38;;
12687;SDS011;6408;59.388;17.798;2023-06-26T07:12:15;3.47;;;2.42;;
12687;SDS011;6408;59.388;17.798;2023-06-26T07:14:42;2.63;;;2.33;;
12687;SDS011;6408;59.388;17.798;2023-06-26T07:17:10;2.53;;;2.30;;
12687;SDS011;6408;59.388;17.798;2023-06-26T07:19:37;2.40;;;2.08;;
12687;SDS011;6408;59.388;17.798;2023-06-26T07:22:05;2.85;;;2.40;;
12687;SDS011;6408;59.388;17.798;2023-06-26T07:24:33;2.35;;;2.03;;
12687;SDS011;6408;59.388;17.798;2023-06-26T07:27:00;2.95;;;2.22;;
12687;SDS011;6408;59.388;17.798;2023-06-26T07:29:29;3.28;;;2.30;;
12687;SDS011;6408;59.388;17.798;2023-06-26T07:31:57;2.33;;;2.10;;
12687;SDS011;6408;59.388;17.798;2023-06-26T07:34:24;2.22;;;2.00;;
12687;SDS011;6408;59.388;17.798;2023-06-26T07:36:51;2.35;;;2.13;;
12687;SDS011;6408;59.388;17.798;2023-06-26T07:39:19;2.50;;;2.03;;
12687;SDS011;6408;59.388;17.798;2023-06-26T07:41:46;2.53;;;2.33;;
12687;SDS011;6408;59.388;17.798;2023-06-26T07:44:13;3.97;;;2.20;;
12687;SDS011;6408;59.388;17.798;2023-06-26T07:46:43;2.40;;;2.10;;
12687;SDS011;6408;59.388;17.798;2023-06-26T07:49:11;2.03;;;1.90;;
12687;SDS011;6408;59.388;17.798;2023-06-26T07:51:38;4.30;;;2.00;;
12687;SDS011;6408;59.388;17.798;2023-06-26T07:54:06;3.13;;;2.30;;
12687;SDS011;6408;59.388;17.798;2023-06-26T07:56:35;3.15;;;2.05;;
12687;SDS011;6408;59.388;17.798;2023-06-26T07:59:18;2.20;;;2.00;;
12687;SDS011;6408;59.388;17.798;2023-06-26T08:01:48;3.40;;;2.35;;
12687;SDS011;6408;59.388;17.798;2023-06-26T08:04:16;5.07;;;2.58;;
12687;SDS011;6408;59.388;17.798;2023-06-26T08:06:45;3.83;;;2.03;;
12687;SDS011;6408;59.388;17.798;2023-06-26T08:09:12;2.30;;;2.10;;
12687;SDS011;6408;59.388;17.798;2023-06-26T08:11:40;2.63;;;2.20;;
12687;SDS011;6408;59.388;17.798;2023-06-26T08:14:08;3.28;;;2.20;;
12687;SDS011;6408;59.388;17.798;2023-06-26T08:16:37;2.28;;;1.90;;
12687;SDS011;6408;59.388;17.798;2023-06-26T08:19:06;3.72;;;2.05;;
12687;SDS011;6408;59.388;17.798;2023-06-26T08:21:33;4.55;;;2.13;;
12687;SDS011;6408;59.388;17.798;2023-06-26T08:24:01;2.85;;;1.90;;
12687;SDS011;6408;59.388;17.798;2023-06-26T08:26:29;6.28;;;2.28;;
12687;SDS011;6408;59.388;17.798;2023-06-26T08:28:56;3.30;;;1.98;;
12687;SDS011;6408;59.388;17.798;2023-06-26T08:31:23;2.88;;;1.63;;
12687;SDS011;6408;59.388;17.798;2023-06-26T08:33:54;3.10;;;1.85;;
12687;SDS011;6408;59.388;17.798;2023-06-26T08:36:26;3.15;;;2.10;;
12687;SDS011;6408;59.388;17.798;2023-06-26T08:38:53;3.72;;;2.00;;
12687;SDS011;6408;59.388;17.798;2023-06-26T08:41:21;2.08;;;1.77;;
12687;SDS011;6408;59.388;17.798;2023-06-26T08:43:48;4.10;;;2.17;;
12687;SDS011;6408;59.388;17.798;2023-06-26T08:46:17;2.08;;;1.85;;
12687;SDS011;6408;59.388;17.798;2023-06-26T08:48:48;4.82;;;2.22;;
12687;SDS011;6408;59.388;17.798;2023-06-26T08:51:18;2.45;;;2.03;;
12687;SDS011;6408;59.388;17.798;2023-06-26T08:53:50;2.50;;;2.25;;
12687;SDS011;6408;59.388;17.798;2023-06-26T08:56:22;3.00;;;2.33;;
12687;SDS011;6408;59.388;17.798;2023-06-26T08:58:51;2.97;;;1.80;;
12687;SDS011;6408;59.388;17.798;2023-06-26T09:01:19;2.15;;;1.70;;
12687;SDS011;6408;59.388;17.798;2023-06-26T09:03:48;3.30;;;2.15;;
12687;SDS011;6408;59.388;17.798;2023-06-26T09:06:17;3.30;;;2.25;;
12687;SDS011;6408;59.388;17.798;2023-06-26T09:08:44;3.45;;;1.85;;
12687;SDS011;6408;59.388;17.798;2023-06-26T09:11:14;2.13;;;1.80;;
12687;SDS011;6408;59.388;17.798;2023-06-26T09:13:41;1.80;;;1.70;;
12687;SDS011;6408;59.388;17.798;2023-06-26T09:16:10;2.53;;;1.77;;
12687;SDS011;6408;59.388;17.798;2023-06-26T09:18:37;2.63;;;1.80;;
12687;SDS011;6408;59.388;17.798;2023-06-26T09:21:08;1.80;;;1.50;;
12687;SDS011;6408;59.388;17.798;2023-06-26T09:23:37;1.88;;;1.48;;
12687;SDS011;6408;59.388;17.798;2023-06-26T09:26:07;1.92;;;1.77;;
12687;SDS011;6408;59.388;17.798;2023-06-26T09:28:36;2.05;;;1.80;;
12687;SDS011;6408;59.388;17.798;2023-06-26T09:31:04;1.70;;;1.60;;
12687;SDS011;6408;59.388;17.798;2023-06-26T09:33:33;1.98;;;1.77;;
12687;SDS011;6408;59.388;17.798;2023-06-26T09:36:04;2.90;;;1.70;;
12687;SDS011;6408;59.388;17.798;2023-06-26T09:38:33;2.65;;;2.13;;
12687;SDS011;6408;59.388;17.798;2023-06-26T09:41:01;4.40;;;2.00;;
12687;SDS011;6408;59.388;17.798;2023-06-26T09:43:29;3.20;;;2.00;;
12687;SDS011;6408;59.388;17.798;2023-06-26T09:45:59;3.50;;;1.70;;
12687;SDS011;6408;59.388;17.798;2023-06-26T09:48:28;2.63;;;2.10;;
12687;SDS011;6408;59.388;17.798;2023-06-26T09:50:56;2.53;;;1.77;;
12687;SDS011;6408;59.388;17.798;2023-06-26T09:53:27;2.05;;;1.80;;
12687;SDS011;6408;59.388;17.798;2023-06-26T09:55:54;3.65;;;1.85;;
12687;SDS011;6408;59.388;17.798;2023-06-26T09:58:22;2.20;;;2.00;;
12687;SDS011;6408;59.388;17.798;2023-06-26T10:00:51;1.80;;;1.70;;
12687;SDS011;6408;59.388;17.798;2023-06-26T10:03:21;4.47;;;2.20;;
12687;SDS011;6408;59.388;17.798;2023-06-26T10:05:49;2.72;;;2.00;;
12687;SDS011;6408;59.388;17.798;2023-06-26T10:08:17;1.88;;;1.70;;
12687;SDS011;6408;59.388;17.798;2023-06-26T10:10:44;3.72;;;1.77;;
12687;SDS011;6408;59.388;17.798;2023-06-26T10:13:15;2.50;;;1.83;;
12687;SDS011;6408;59.388;17.798;2023-06-26T10:15:46;1.85;;;1.75;;
12687;SDS011;6408;59.388;17.798;2023-06-26T10:18:16;3.10;;;2.00;;
12687;SDS011;6408;59.388;17.798;2023-06-26T10:20:47;2.00;;;1.90;;
12687;SDS011;6408;59.388;17.798;2023-06-26T10:23:16;1.90;;;1.80;;
12687;SDS011;6408;59.388;17.798;2023-06-26T10:25:47;2.22;;;1.75;;
12687;SDS011;6408;59.388;17.798;2023-06-26T10:28:17;2.33;;;1.95;;
12687;SDS011;6408;59.388;17.798;2023-06-26T10:30:48;2.33;;;1.83;;
12687;SDS011;6408;59.388;17.798;2023-06-26T10:33:17;2.25;;;1.83;;
12687;SDS011;6408;59.388;17.798;2023-06-26T10:35:47;1.85;;;1.63;;
12687;SDS011;6408;59.388;17.798;2023-06-26T10:38:14;1.80;;;1.70;;
12687;SDS011;6408;59.388;17.798;2023-06-26T10:40:43;2.17;;;2.00;;
12687;SDS011;6408;59.388;17.798;2023-06-26T10:43:12;3.13;;;2.00;;
12687;SDS011;6408;59.388;17.798;2023-06-26T10:45:43;3.67;;;2.05;;
12687;SDS011;6408;59.388;17.798;2023-06-26T10:48:17;2.20;;;2.00;;
12687;SDS011;6408;59.388;17.798;2023-06-26T10:50:48;2.08;;;1.90;;
12687;SDS011;6408;59.388;17.798;2023-06-26T10:53:22;3.75;;;2.00;;
12687;SDS011;6408;59.388;17.798;2023-06-26T10:55:55;2.05;;;1.85;;
12687;SDS011;6408;59.388;17.798;2023-06-26T10:58:27;1.83;;;1.73;;
12687;SDS011;6408;59.388;17.798;2023-06-26T11:01:15;3.63;;;1.75;;
12687;SDS011;6408;59.388;17.798;2023-06-26T11:03:59;2.15;;;1.90;;
12687;SDS011;6408;59.388;17.798;2023-06-26T11:06:32;2.40;;;1.80;;
12687;SDS011;6408;59.388;17.798;2023-06-26T11:09:06;1.83;;;1.70;;
12687;SDS011;6408;59.388;17.798;2023-06-26T11:14:27;2.92;;;1.95;;
12687;SDS011;6408;59.388;17.798;2023-06-26T11:16:55;2.95;;;1.95;;
12687;SDS011;6408;59.388;17.798;2023-06-26T11:19:24;2.47;;;1.95;;
12687;SDS011;6408;59.388;17.798;2023-06-26T11:22:05;3.55;;;1.83;;
12687;SDS011;6408;59.388;17.798;2023-06-26T11:24:33;1.90;;;1.70;;
12687;SDS011;6408;59.388;17.798;2023-06-26T11:27:01;4.38;;;2.03;;
12687;SDS011;6408;59.388;17.798;2023-06-26T11:29:30;3.40;;;2.25;;
12687;SDS011;6408;59.388;17.798;2023-06-26T11:31:58;2.20;;;1.70;;
12687;SDS011;6408;59.388;17.798;2023-06-26T11:34:29;2.10;;;1.90;;
12687;SDS011;6408;59.388;17.798;2023-06-26T11:36:57;1.77;;;1.67;;
12687;SDS011;6408;59.388;17.798;2023-06-26T11:39:29;1.92;;;1.70;;
12687;SDS011;6408;59.388;17.798;2023-06-26T11:41:56;2.08;;;1.80;;
12687;SDS011;6408;59.388;17.798;2023-06-26T11:44:28;2.50;;;1.63;;
12687;SDS011;6408;59.388;17.798;2023-06-26T11:46:57;2.33;;;1.65;;
12687;SDS011;6408;59.388;17.798;2023-06-26T11:49:24;1.98;;;1.70;;
12687;SDS011;6408;59.388;17.798;2023-06-26T11:51:52;2.47;;;1.50;;
12687;SDS011;6408;59.388;17.798;2023-06-26T11:54:31;1.73;;;1.63;;
12687;SDS011;6408;59.388;17.798;2023-06-26T11:57:00;2.20;;;1.65;;
12687;SDS011;6408;59.388;17.798;2023-06-26T11:59:34;1.52;;;1.42;;
12687;SDS011;6408;59.388;17.798;2023-06-26T12:02:06;2.00;;;1.73;;
12687;SDS011;6408;59.388;17.798;2023-06-26T12:04:48;2.20;;;1.55;;
12687;SDS011;6408;59.388;17.798;2023-06-26T12:07:16;1.92;;;1.73;;
12687;SDS011;6408;59.388;17.798;2023-06-26T12:09:46;2.70;;;1.60;;
12687;SDS011;6408;59.388;17.798;2023-06-26T12:12:16;1.73;;;1.63;;
12687;SDS011;6408;59.388;17.798;2023-06-26T12:14:44;1.92;;;1.73;;
12687;SDS011;6408;59.388;17.798;2023-06-26T12:17:13;3.85;;;2.10;;
12687;SDS011;6408;59.388;17.798;2023-06-26T12:19:52;1.63;;;1.42;;
12687;SDS011;6408;59.388;17.798;2023-06-26T12:22:19;2.35;;;1.60;;
12687;SDS011;6408;59.388;17.798;2023-06-26T12:24:48;2.58;;;1.65;;
12687;SDS011;6408;59.388;17.798;2023-06-26T12:27:17;3.80;;;1.63;;
12687;SDS011;6408;59.388;17.798;2023-06-26T12:29:48;1.70;;;1.40;;
12687;SDS011;6408;59.388;17.798;2023-06-26T12:32:18;1.45;;;1.30;;
12687;SDS011;6408;59.388;17.798;2023-06-26T12:34:47;2.20;;;1.40;;
12687;SDS011;6408;59.388;17.798;2023-06-26T12:37:16;1.58;;;1.48;;
12687;SDS011;6408;59.388;17.798;2023-06-26T12:39:49;1.52;;;1.40;;
12687;SDS011;6408;59.388;17.798;2023-06-26T12:42:17;2.15;;;1.52;;
12687;SDS011;6408;59.388;17.798;2023-06-26T12:44:46;2.28;;;1.70;;
12687;SDS011;6408;59.388;17.798;2023-06-26T12:47:14;2.45;;;1.60;;
12687;SDS011;6408;59.388;17.798;2023-06-26T12:49:43;2.10;;;1.70;;
12687;SDS011;6408;59.388;17.798;2023-06-26T12:52:12;2.25;;;1.40;;
12687;SDS011;6408;59.388;17.798;2023-06-26T12:54:41;1.55;;;1.45;;
12687;SDS011;6408;59.388;17.798;2023-06-26T12:57:11;1.70;;;1.60;;
12687;SDS011;6408;59.388;17.798;2023-06-26T12:59:39;1.40;;;1.30;;
12687;SDS011;6408;59.388;17.798;2023-06-26T13:02:07;1.67;;;1.48;;
12687;SDS011;6408;59.388;17.798;2023-06-26T13:04:36;2.05;;;1.50;;
12687;SDS011;6408;59.388;17.798;2023-06-26T13:07:05;1.80;;;1.50;;
12687;SDS011;6408;59.388;17.798;2023-06-26T13:09:33;1.65;;;1.55;;
12687;SDS011;6408;59.388;17.798;2023-06-26T13:12:02;1.60;;;1.50;;
12687;SDS011;6408;59.388;17.798;2023-06-26T13:14:31;1.92;;;1.30;;
12687;SDS011;6408;59.388;17.798;2023-06-26T13:17:00;1.50;;;1.40;;
12687;SDS011;6408;59.388;17.798;2023-06-26T13:19:28;1.92;;;1.50;;
12687;SDS011;6408;59.388;17.798;2023-06-26T13:21:56;1.90;;;1.40;;
12687;SDS011;6408;59.388;17.798;2023-06-26T13:24:23;1.48;;;1.38;;
12687;SDS011;6408;59.388;17.798;2023-06-26T13:26:51;1.63;;;1.50;;
12687;SDS011;6408;59.388;17.798;2023-06-26T13:29:19;3.85;;;1.63;;
12687;SDS011;6408;59.388;17.798;2023-06-26T13:31:48;2.05;;;1.50;;
12687;SDS011;6408;59.388;17.798;2023-06-26T13:34:22;1.48;;;1.38;;
12687;SDS011;6408;59.388;17.798;2023-06-26T13:36:52;2.50;;;1.67;;
12687;SDS011;6408;59.388;17.798;2023-06-26T13:39:21;1.48;;;1.38;;
12687;SDS011;6408;59.388;17.798;2023-06-26T13:41:49;1.50;;;1.40;;
12687;SDS011;6408;59.388;17.798;2023-06-26T13:44:16;1.63;;;1.50;;
12687;SDS011;6408;59.388;17.798;2023-06-26T13:46:43;1.58;;;1.48;;
12687;SDS011;6408;59.388;17.798;2023-06-26T13:49:12;1.50;;;1.40;;
12687;SDS011;6408;59.388;17.798;2023-06-26T13:51:40;2.75;;;1.52;;
12687;SDS011;6408;59.388;17.798;2023-06-26T13:54:12;1.88;;;1.45;;
12687;SDS011;6408;59.388;17.798;2023-06-26T13:56:39;1.65;;;1.30;;
12687;SDS011;6408;59.388;17.798;2023-06-26T13:59:06;1.98;;;1.20;;
12687;SDS011;6408;59.388;17.798;2023-06-26T14:01:33;2.10;;;1.25;;
12687;SDS011;6408;59.388;17.798;2023-06-26T14:04:00;1.90;;;1.30;;
12687;SDS011;6408;59.388;17.798;2023-06-26T14:06:29;2.80;;;1.27;;
12687;SDS011;6408;59.388;17.798;2023-06-26T14:08:57;1.50;;;1.40;;
12687;SDS011;6408;59.388;17.798;2023-06-26T14:11:25;1.52;;;1.42;;
12687;SDS011;6408;59.388;17.798;2023-06-26T14:13:52;2.50;;;1.33;;
12687;SDS011;6408;59.388;17.798;2023-06-26T14:16:19;2.05;;;1.52;;
12687;SDS011;6408;59.388;17.798;2023-06-26T14:18:46;1.67;;;1.58;;
12687;SDS011;6408;59.388;17.798;2023-06-26T14:21:15;1.50;;;1.40;;
12687;SDS011;6408;59.388;17.798;2023-06-26T14:23:44;1.60;;;1.20;;
12687;SDS011;6408;59.388;17.798;2023-06-26T14:26:12;3.78;;;1.70;;
12687;SDS011;6408;59.388;17.798;2023-06-26T14:28:39;1.30;;;1.20;;
12687;SDS011;6408;59.388;17.798;2023-06-26T14:31:06;1.50;;;1.40;;
12687;SDS011;6408;59.388;17.798;2023-06-26T14:33:34;2.22;;;1.50;;
12687;SDS011;6408;59.388;17.798;2023-06-26T14:36:01;1.40;;;1.30;;
12687;SDS011;6408;59.388;17.798;2023-06-26T14:38:29;3.28;;;1.45;;
12687;SDS011;6408;59.388;17.798;2023-06-26T14:40:57;1.83;;;1.40;;
12687;SDS011;6408;59.388;17.798;2023-06-26T14:43:24;1.77;;;1.67;;
12687;SDS011;6408;59.388;17.798;2023-06-26T14:45:52;2.03;;;1.42;;
12687;SDS011;6408;59.388;17.798;2023-06-26T14:48:19;1.50;;;1.30;;
12687;SDS011;6408;59.388;17.798;2023-06-26T14:50:47;2.75;;;1.60;;
12687;SDS011;6408;59.388;17.798;2023-06-26T14:53:14;2.15;;;1.30;;
12687;SDS011;6408;59.388;17.798;2023-06-26T14:55:42;1.65;;;1.30;;
12687;SDS011;6408;59.388;17.798;2023-06-26T14:58:11;1.50;;;1.40;;
12687;SDS011;6408;59.388;17.798;2023-06-26T15:00:39;1.60;;;1.50;;
12687;SDS011;6408;59.388;17.798;2023-06-26T15:03:06;2.92;;;1.40;;
12687;SDS011;6408;59.388;17.798;2023-06-26T15:05:33;1.58;;;1.48;;